Time;durP1;ratioP1;P1;durP2;ratioP2;P2;SDS_P1;SDS_P2;PMS_P1;PMS_P2;Temp;Humidity;BMP_temperature;BMP_pressure;BME280_temperature;BME280_humidity;BME280_pressure;Samples;Min_cycle;Max_cycle;Signal;HPM_P1;HPM_P2
2022/10/01 00:01:10;;;;;;;10.07;7.10;;;11.20;99.90;;;;;;5030963;28;20509;-62
2022/10/01 00:03:37;;;;;;;12.23;7.70;;;11.20;99.90;;;;;;5030357;28;20046;-62
2022/10/01 00:06:08;;;;;;;10.45;9.13;;;11.20;99.90;;;;;;5032384;28;20048;-62
2022/10/01 00:08:36;;;;;;;11.38;9.10;;;11.20;99.90;;;;;;5032382;28;20041;-62
2022/10/01 00:11:13;;;;;;;13.57;8.73;;;11.20;99.90;;;;;;5030679;28;20435;-62
2022/10/01 00:13:42;;;;;;;11.27;8.80;;;11.20;99.90;;;;;;5031708;28;20120;-62
2022/10/01 00:16:10;;;;;;;14.18;10.18;;;11.20;99.90;;;;;;5063691;28;20044;-62
2022/10/01 00:18:41;;;;;;;14.07;10.73;;;11.20;99.90;;;;;;5031074;28;20099;-62
2022/10/01 00:21:09;;;;;;;13.32;10.25;;;11.10;99.90;;;;;;5030794;28;20441;-62
2022/10/01 00:23:36;;;;;;;13.82;11.07;;;11.10;99.90;;;;;;5030179;28;20120;-62
2022/10/01 00:26:12;;;;;;;12.50;10.32;;;11.10;99.90;;;;;;5030891;28;20045;-62
2022/10/01 00:28:38;;;;;;;12.98;9.93;;;11.10;99.90;;;;;;5031415;28;20043;-62
2022/10/01 00:31:06;;;;;;;11.20;9.07;;;11.10;99.90;;;;;;5030298;28;20071;-61
2022/10/01 00:33:32;;;;;;;11.82;8.82;;;11.10;99.90;;;;;;5030964;28;20518;-61
2022/10/01 00:35:57;;;;;;;13.02;9.75;;;11.10;99.90;;;;;;5031805;28;20054;-61
2022/10/01 00:38:23;;;;;;;14.23;10.63;;;11.10;99.90;;;;;;5063237;28;20042;-61
2022/10/01 00:40:50;;;;;;;12.00;9.38;;;11.10;99.90;;;;;;5032394;28;20042;-61
2022/10/01 00:43:23;;;;;;;10.88;8.68;;;11.10;99.90;;;;;;5032160;28;20061;-61
2022/10/01 00:45:53;;;;;;;12.02;9.88;;;11.10;99.90;;;;;;5030132;28;20090;-61
2022/10/01 00:48:20;;;;;;;13.10;9.35;;;11.10;99.90;;;;;;5030984;28;20080;-60
2022/10/01 00:50:47;;;;;;;11.35;9.65;;;11.10;99.90;;;;;;5030663;28;20046;-60
2022/10/01 00:53:15;;;;;;;12.18;9.45;;;11.00;99.90;;;;;;5031339;28;20079;-60
2022/10/01 00:55:44;;;;;;;12.63;9.00;;;11.00;99.90;;;;;;5014621;28;20053;-60
2022/10/01 00:58:13;;;;;;;12.23;8.93;;;11.00;99.90;;;;;;5046738;28;20046;-60
2022/10/01 01:00:41;;;;;;;14.77;9.32;;;11.00;99.90;;;;;;5031977;28;20401;-60
2022/10/01 01:03:08;;;;;;;11.07;8.40;;;11.00;99.90;;;;;;5031963;28;20056;-60
2022/10/01 01:05:34;;;;;;;13.85;10.43;;;11.00;99.90;;;;;;5030914;28;20037;-60
2022/10/01 01:08:01;;;;;;;10.13;7.95;;;11.00;99.90;;;;;;5031767;28;20046;-60
2022/10/01 01:10:27;;;;;;;11.88;8.95;;;11.00;99.90;;;;;;5031333;28;20042;-60
2022/10/01 01:13:14;;;;;;;11.20;8.50;;;11.10;99.90;;;;;;5067131;28;20041;-60
2022/10/01 01:15:58;;;;;;;10.60;7.75;;;11.00;99.90;;;;;;5068264;28;20154;-60
2022/10/01 01:18:51;;;;;;;11.13;8.18;;;11.00;99.90;;;;;;5035735;28;20041;-61
2022/10/01 01:21:23;;;;;;;17.23;8.48;;;11.00;99.90;;;;;;5034618;28;20054;-60
2022/10/01 01:24:18;;;;;;;10.70;7.80;;;11.00;99.90;;;;;;5035357;28;20486;-60
2022/10/01 01:26:55;;;;;;;11.07;7.87;;;11.00;99.90;;;;;;5035239;28;20402;-60
2022/10/01 01:29:47;;;;;;;9.73;7.43;;;11.00;99.90;;;;;;5034229;28;20042;-60
2022/10/01 01:32:26;;;;;;;12.65;8.05;;;11.00;99.90;;;;;;5034095;28;20045;-60
2022/10/01 01:34:55;;;;;;;12.43;7.22;;;10.90;99.90;;;;;;5033060;28;20491;-60
2022/10/01 01:37:25;;;;;;;9.80;7.88;;;11.00;99.90;;;;;;5034319;28;20037;-60
2022/10/01 01:39:53;;;;;;;9.55;7.05;;;11.00;99.90;;;;;;5035234;28;20041;-60
2022/10/01 01:42:26;;;;;;;10.48;6.88;;;11.00;99.90;;;;;;5033009;28;20052;-60
2022/10/01 01:44:56;;;;;;;9.35;7.20;;;11.00;99.90;;;;;;5035296;28;20048;-60
2022/10/01 01:47:28;;;;;;;8.80;6.95;;;10.90;99.90;;;;;;5033723;28;20179;-60
2022/10/01 01:49:54;;;;;;;9.93;7.10;;;11.00;99.90;;;;;;5017221;28;20065;-60
2022/10/01 01:52:20;;;;;;;9.88;6.30;;;11.00;99.90;;;;;;5034915;28;20041;-60
2022/10/01 01:54:48;;;;;;;9.48;6.38;;;11.00;99.90;;;;;;5034124;28;20391;-60
2022/10/01 01:57:16;;;;;;;10.05;6.78;;;11.00;99.90;;;;;;5033915;28;20053;-60
2022/10/01 01:59:42;;;;;;;7.60;5.68;;;11.00;99.90;;;;;;5035212;28;20037;-60
2022/10/01 02:02:34;;;;;;;9.02;6.18;;;11.00;99.90;;;;;;5032693;28;20045;-60
2022/10/01 02:05:06;;;;;;;8.73;6.40;;;11.00;99.90;;;;;;5034513;28;20132;-60
2022/10/01 02:08:13;;;;;;;7.72;5.43;;;11.00;99.90;;;;;;5034601;28;20033;-60
2022/10/01 02:10:57;;;;;;;7.85;4.82;;;11.00;99.90;;;;;;5048748;28;20499;-60
2022/10/01 02:13:38;;;;;;;8.52;5.90;;;11.00;99.90;;;;;;5034748;28;20110;-60
2022/10/01 02:16:13;;;;;;;8.45;5.35;;;11.00;99.90;;;;;;5065861;28;20183;-60
2022/10/01 02:19:10;;;;;;;10.93;5.90;;;11.00;99.90;;;;;;5034865;28;20106;-60
2022/10/01 02:21:44;;;;;;;7.88;6.03;;;11.10;99.90;;;;;;5049277;28;20107;-60
2022/10/01 02:24:26;;;;;;;8.60;5.75;;;11.00;99.90;;;;;;5033593;28;20057;-60
2022/10/01 02:26:54;;;;;;;7.80;5.65;;;11.10;99.90;;;;;;5066779;28;20069;-60
2022/10/01 02:29:22;;;;;;;8.25;5.82;;;11.00;99.90;;;;;;5034298;28;20045;-60
2022/10/01 02:31:52;;;;;;;9.93;6.15;;;11.10;99.90;;;;;;5033446;28;20034;-60
2022/10/01 02:34:19;;;;;;;8.65;5.57;;;11.10;99.90;;;;;;5033319;28;20438;-61
2022/10/01 02:36:47;;;;;;;8.63;6.07;;;11.10;99.90;;;;;;5015654;28;20049;-61
2022/10/01 02:39:16;;;;;;;7.70;5.47;;;11.10;99.90;;;;;;5034426;28;20112;-60
2022/10/01 02:41:46;;;;;;;7.80;5.32;;;11.10;99.90;;;;;;5034437;28;20034;-61
2022/10/01 02:44:17;;;;;;;9.10;5.53;;;11.10;99.90;;;;;;5033362;28;20049;-61
2022/10/01 02:46:55;;;;;;;9.35;5.43;;;11.20;99.90;;;;;;5032912;28;20041;-61
2022/10/01 02:49:21;;;;;;;9.38;4.90;;;11.20;99.90;;;;;;5032714;28;20103;-61
2022/10/01 02:51:58;;;;;;;8.20;5.07;;;11.20;99.90;;;;;;5032082;28;20053;-62
2022/10/01 02:54:33;;;;;;;7.55;4.90;;;11.20;99.90;;;;;;5032785;28;20448;-61
2022/10/01 02:59:44;;;;;;;9.25;5.15;;;11.20;99.90;;;;;;5032337;28;20469;-61
2022/10/01 03:02:10;;;;;;;7.63;5.13;;;11.20;99.90;;;;;;5032773;28;20033;-61
2022/10/01 03:04:36;;;;;;;7.38;4.72;;;11.20;99.90;;;;;;5049020;28;20509;-61
2022/10/01 03:07:03;;;;;;;7.18;4.55;;;11.20;99.90;;;;;;5032956;28;20038;-61
2022/10/01 03:09:33;;;;;;;7.38;4.47;;;11.20;99.90;;;;;;5032511;28;20048;-61
2022/10/01 03:12:00;;;;;;;7.43;4.90;;;11.20;99.90;;;;;;5032725;28;20199;-61
2022/10/01 03:14:26;;;;;;;8.43;4.97;;;11.20;99.90;;;;;;5033688;28;20049;-61
2022/10/01 03:16:53;;;;;;;6.55;3.95;;;11.30;99.90;;;;;;5032391;28;20359;-61
2022/10/01 03:19:19;;;;;;;7.28;3.65;;;11.20;99.90;;;;;;5032610;28;20051;-61
2022/10/01 03:21:45;;;;;;;5.78;3.75;;;11.30;99.90;;;;;;5065328;28;20054;-62
2022/10/01 03:24:10;;;;;;;6.35;3.60;;;11.30;99.90;;;;;;5033546;28;20038;-61
2022/10/01 03:26:36;;;;;;;6.20;3.78;;;11.30;99.90;;;;;;5064419;28;20107;-61
2022/10/01 03:29:03;;;;;;;6.38;3.53;;;11.30;99.90;;;;;;5033318;28;20087;-61
2022/10/01 03:31:29;;;;;;;5.55;3.78;;;11.30;99.90;;;;;;5031892;28;20045;-61
2022/10/01 03:33:56;;;;;;;4.80;2.85;;;11.30;99.90;;;;;;5030930;28;20055;-61
2022/10/01 03:36:22;;;;;;;7.32;3.45;;;11.40;99.90;;;;;;5031963;28;20529;-62
2022/10/01 03:38:48;;;;;;;6.50;3.45;;;11.40;99.90;;;;;;5032871;28;20077;-61
2022/10/01 03:41:13;;;;;;;4.75;2.78;;;11.40;99.90;;;;;;5032070;28;20053;-61
2022/10/01 03:43:39;;;;;;;5.50;3.40;;;11.40;99.90;;;;;;5065031;28;20037;-61
2022/10/01 03:46:05;;;;;;;5.45;2.85;;;11.40;99.90;;;;;;5064764;28;20053;-61
2022/10/01 03:48:30;;;;;;;4.90;2.90;;;11.40;99.90;;;;;;5064362;28;20068;-62
2022/10/01 03:50:58;;;;;;;5.60;3.20;;;11.40;99.90;;;;;;5065070;28;20037;-62
2022/10/01 03:53:26;;;;;;;6.03;3.35;;;11.40;99.90;;;;;;5031492;28;20075;-62
2022/10/01 03:55:52;;;;;;;4.80;2.90;;;11.40;99.90;;;;;;5030584;28;20494;-62
2022/10/01 03:58:18;;;;;;;5.35;3.15;;;11.40;99.90;;;;;;5032711;28;20041;-61
2022/10/01 04:00:46;;;;;;;5.28;3.20;;;11.40;99.90;;;;;;5064973;28;20068;-61
2022/10/01 04:03:12;;;;;;;6.50;3.55;;;11.40;99.90;;;;;;5047125;28;20051;-61
2022/10/01 04:05:38;;;;;;;6.70;3.45;;;11.50;99.90;;;;;;5031545;28;20124;-61
2022/10/01 04:08:04;;;;;;;7.18;3.83;;;11.50;99.90;;;;;;5030756;28;20401;-61
2022/10/01 04:10:30;;;;;;;6.03;3.40;;;11.50;99.90;;;;;;5047799;28;20124;-62
2022/10/01 04:12:56;;;;;;;5.63;3.65;;;11.50;99.90;;;;;;5032440;28;20041;-62
2022/10/01 04:15:23;;;;;;;7.63;3.95;;;11.50;99.90;;;;;;5031698;28;20043;-62
2022/10/01 04:17:48;;;;;;;5.20;3.15;;;11.60;99.90;;;;;;5035235;28;20102;-61
2022/10/01 04:20:14;;;;;;;6.03;3.45;;;11.60;99.90;;;;;;5050952;28;20405;-62
2022/10/01 04:22:41;;;;;;;6.47;3.13;;;11.60;99.90;;;;;;5051632;28;20049;-62
2022/10/01 04:25:09;;;;;;;5.45;3.28;;;11.60;99.90;;;;;;5051832;28;20562;-62
2022/10/01 04:27:36;;;;;;;5.63;3.85;;;11.60;99.90;;;;;;5052228;28;20136;-62
2022/10/01 04:30:03;;;;;;;5.50;3.67;;;11.60;99.90;;;;;;5067089;28;20394;-61
2022/10/01 04:32:28;;;;;;;6.15;3.90;;;11.60;99.90;;;;;;5051183;28;20049;-61
2022/10/01 04:34:54;;;;;;;8.32;4.40;;;11.60;99.90;;;;;;5051836;28;20044;-61
2022/10/01 04:37:21;;;;;;;6.22;4.35;;;11.60;99.90;;;;;;5051188;28;20116;-62
2022/10/01 04:39:46;;;;;;;8.13;4.45;;;11.70;99.90;;;;;;5051941;28;20045;-62
2022/10/01 04:42:12;;;;;;;7.35;4.63;;;11.70;99.90;;;;;;5050612;28;20119;-62
2022/10/01 04:44:39;;;;;;;6.55;4.32;;;11.70;99.90;;;;;;5051209;28;20067;-61
2022/10/01 04:47:05;;;;;;;6.35;4.07;;;11.80;99.90;;;;;;5033866;28;20045;-61
2022/10/01 04:49:32;;;;;;;6.40;4.38;;;11.80;99.90;;;;;;5051915;28;20041;-61
2022/10/01 04:51:59;;;;;;;6.20;4.78;;;11.80;99.90;;;;;;5050946;28;20037;-61
2022/10/01 04:54:25;;;;;;;7.13;4.38;;;11.90;99.90;;;;;;5051741;28;20090;-62
2022/10/01 04:56:51;;;;;;;7.63;4.53;;;11.90;99.90;;;;;;5050510;28;20045;-62
2022/10/01 04:59:17;;;;;;;6.68;4.28;;;11.90;99.90;;;;;;5049814;28;20178;-62
2022/10/01 05:01:43;;;;;;;6.53;4.50;;;11.90;99.90;;;;;;5052113;28;20037;-62
2022/10/01 05:04:09;;;;;;;8.02;4.30;;;12.00;99.90;;;;;;5051683;28;20029;-62
2022/10/01 05:06:35;;;;;;;8.95;5.25;;;12.00;99.90;;;;;;5083284;28;20115;-62
2022/10/01 05:09:00;;;;;;;8.90;5.30;;;12.10;99.90;;;;;;5067088;28;20098;-62
2022/10/01 05:11:26;;;;;;;7.95;5.20;;;12.10;99.90;;;;;;5049734;28;20068;-62
2022/10/01 05:13:53;;;;;;;8.43;5.28;;;12.20;99.90;;;;;;5050442;28;20051;-62
2022/10/01 05:16:18;;;;;;;9.15;5.15;;;12.20;99.90;;;;;;5051663;28;20087;-62
2022/10/01 05:18:44;;;;;;;10.02;5.63;;;12.20;99.90;;;;;;5050992;28;20072;-62
2022/10/01 05:21:10;;;;;;;11.10;5.20;;;12.30;99.90;;;;;;5050404;28;20440;-62
2022/10/01 05:23:37;;;;;;;8.57;5.63;;;12.30;99.90;;;;;;5050004;28;20139;-62
2022/10/01 05:26:04;;;;;;;10.98;5.93;;;12.40;99.90;;;;;;5049379;28;20083;-62
2022/10/01 05:28:34;;;;;;;11.27;5.90;;;12.40;99.90;;;;;;5050483;28;20398;-62
2022/10/01 05:31:03;;;;;;;9.57;5.72;;;12.40;99.90;;;;;;5050204;28;20170;-62
2022/10/01 05:33:30;;;;;;;14.20;6.05;;;12.40;99.90;;;;;;5050773;28;20131;-62
2022/10/01 05:35:59;;;;;;;8.38;6.35;;;12.40;99.90;;;;;;5050362;28;20049;-62
2022/10/01 05:38:24;;;;;;;14.38;7.10;;;12.50;99.90;;;;;;5050183;28;20036;-63
2022/10/01 05:40:50;;;;;;;9.57;6.35;;;12.50;99.90;;;;;;5049447;28;20545;-62
2022/10/01 05:43:17;;;;;;;11.98;6.68;;;12.50;99.90;;;;;;5083499;28;20048;-62
2022/10/01 05:45:43;;;;;;;7.72;5.47;;;12.50;99.90;;;;;;5051884;28;20044;-62
2022/10/01 05:48:09;;;;;;;10.13;5.93;;;12.50;99.90;;;;;;5050594;28;20037;-62
2022/10/01 05:50:39;;;;;;;12.50;6.55;;;12.50;99.90;;;;;;5050267;28;20474;-62
2022/10/01 05:53:06;;;;;;;14.65;5.68;;;12.40;99.90;;;;;;5050119;28;20044;-61
2022/10/01 05:55:33;;;;;;;12.57;6.45;;;12.40;99.90;;;;;;5050414;28;20578;-61
2022/10/01 05:58:04;;;;;;;10.95;6.15;;;12.40;99.90;;;;;;5051392;28;20048;-61
2022/10/01 06:00:30;;;;;;;11.25;6.07;;;12.40;99.90;;;;;;5054794;28;20086;-61
2022/10/01 06:02:57;;;;;;;11.77;6.07;;;12.30;99.90;;;;;;5054336;28;20040;-62
2022/10/01 06:05:23;;;;;;;10.82;6.70;;;12.30;99.90;;;;;;5053697;28;20037;-62
2022/10/01 06:07:49;;;;;;;11.23;5.95;;;12.40;99.90;;;;;;5052603;28;20458;-62
2022/10/01 06:10:15;;;;;;;13.65;6.60;;;12.40;99.90;;;;;;5053550;28;20079;-62
2022/10/01 06:12:44;;;;;;;16.88;6.70;;;12.30;99.90;;;;;;5054926;28;20045;-62
2022/10/01 06:15:11;;;;;;;13.43;7.15;;;12.30;99.90;;;;;;5052783;28;20045;-62
2022/10/01 06:17:42;;;;;;;13.80;7.07;;;12.30;99.90;;;;;;5053212;28;20099;-62
2022/10/01 06:20:13;;;;;;;13.00;5.68;;;12.30;99.90;;;;;;5054495;28;20061;-62
2022/10/01 06:22:39;;;;;;;11.40;5.90;;;12.30;99.90;;;;;;5053726;28;20091;-62
2022/10/01 06:25:06;;;;;;;16.05;6.88;;;12.30;99.90;;;;;;5054303;28;20049;-62
2022/10/01 06:27:31;;;;;;;14.55;6.78;;;12.30;99.90;;;;;;5054251;28;20052;-62
2022/10/01 06:29:57;;;;;;;13.30;6.63;;;12.30;99.90;;;;;;5053229;28;20033;-62
2022/10/01 06:32:23;;;;;;;12.65;5.97;;;12.40;99.90;;;;;;5086012;28;20465;-62
2022/10/01 06:34:48;;;;;;;12.07;7.05;;;12.40;99.90;;;;;;5052804;28;20060;-62
2022/10/01 06:37:14;;;;;;;16.08;7.55;;;12.50;99.90;;;;;;5053373;28;20044;-61
2022/10/01 06:39:40;;;;;;;9.63;5.57;;;12.50;99.90;;;;;;5054107;28;20068;-62
2022/10/01 06:42:06;;;;;;;15.13;6.53;;;12.50;99.90;;;;;;5052768;28;20037;-62
2022/10/01 06:44:31;;;;;;;18.55;6.70;;;12.50;99.90;;;;;;5051933;28;20040;-62
2022/10/01 06:46:57;;;;;;;13.30;6.43;;;12.60;99.90;;;;;;5054434;28;20055;-61
2022/10/01 06:49:23;;;;;;;16.92;6.18;;;12.60;99.90;;;;;;5053712;28;20048;-62
2022/10/01 06:54:32;;;;;;;19.08;6.78;;;12.60;99.90;;;;;;5053933;28;20045;-62
2022/10/01 06:56:58;;;;;;;14.32;6.60;;;12.60;99.90;;;;;;5085616;28;20037;-62
2022/10/01 06:59:24;;;;;;;16.02;7.75;;;12.60;99.90;;;;;;5053598;28;20033;-62
2022/10/01 07:01:49;;;;;;;22.67;8.07;;;12.60;99.90;;;;;;5069099;28;20057;-62
2022/10/01 07:04:15;;;;;;;15.18;6.63;;;12.60;99.90;;;;;;5046062;28;20486;-62
2022/10/01 07:06:41;;;;;;;18.30;7.32;;;12.70;99.90;;;;;;5048653;28;20044;-61
2022/10/01 07:09:06;;;;;;;14.38;6.28;;;12.60;99.90;;;;;;5047886;28;20040;-62
2022/10/01 07:11:32;;;;;;;15.73;5.78;;;12.60;99.90;;;;;;5049227;28;20041;-61
2022/10/01 07:14:00;;;;;;;18.08;6.38;;;12.60;99.90;;;;;;5050431;28;20033;-62
2022/10/01 07:16:25;;;;;;;12.57;5.30;;;12.60;99.90;;;;;;5048554;28;20056;-62
2022/10/01 07:18:51;;;;;;;16.33;7.55;;;12.60;99.90;;;;;;5082009;28;20052;-63
2022/10/01 07:21:17;;;;;;;14.00;6.57;;;12.60;99.90;;;;;;5049003;28;20505;-62
2022/10/01 07:23:43;;;;;;;15.23;7.15;;;12.70;99.90;;;;;;5049821;28;20048;-62
2022/10/01 07:26:09;;;;;;;23.60;7.25;;;12.70;99.90;;;;;;5050131;28;20041;-62
2022/10/01 07:28:34;;;;;;;13.23;5.88;;;12.80;99.90;;;;;;5050716;28;20047;-62
2022/10/01 07:31:05;;;;;;;16.75;6.05;;;12.80;99.90;;;;;;5049584;28;20037;-62
2022/10/01 07:33:31;;;;;;;16.80;5.43;;;12.90;99.90;;;;;;5048547;28;20084;-62
2022/10/01 07:36:02;;;;;;;15.68;5.78;;;13.00;99.90;;;;;;5048791;28;20502;-62
2022/10/01 07:38:28;;;;;;;17.00;5.80;;;13.10;99.90;;;;;;5050014;28;20423;-62
2022/10/01 07:40:54;;;;;;;19.13;6.13;;;13.20;99.90;;;;;;5028651;28;20041;-62
2022/10/01 07:43:21;;;;;;;17.70;5.32;;;13.20;99.90;;;;;;5044396;28;20037;-62
2022/10/01 07:45:48;;;;;;;14.05;5.97;;;13.20;99.90;;;;;;5031853;28;20036;-62
2022/10/01 07:48:14;;;;;;;18.15;7.00;;;13.30;99.90;;;;;;5049551;28;20037;-62
2022/10/01 07:50:43;;;;;;;13.98;4.43;;;13.40;99.90;;;;;;5048333;28;20128;-62
2022/10/01 07:53:10;;;;;;;12.27;5.43;;;13.50;99.90;;;;;;5049029;28;20167;-61
2022/10/01 07:55:36;;;;;;;19.38;7.85;;;13.50;99.90;;;;;;5049877;28;20028;-62
2022/10/01 07:58:02;;;;;;;13.90;6.57;;;13.60;99.90;;;;;;5050011;28;20040;-62
2022/10/01 08:00:31;;;;;;;18.30;6.70;;;13.60;99.90;;;;;;5048006;28;20083;-63
2022/10/01 08:02:57;;;;;;;18.60;6.43;;;13.70;99.90;;;;;;5048466;28;20478;-62
2022/10/01 08:05:27;;;;;;;21.98;7.05;;;13.80;99.90;;;;;;5049618;28;20037;-62
2022/10/01 08:43:35;;;;;;;17.60;3.63;;;14.00;99.90;;;;;;5040621;28;20047;-61
2022/10/01 08:46:11;;;;;;;16.02;4.65;;;13.90;99.90;;;;;;5042493;28;20037;-62
2022/10/01 08:48:43;;;;;;;10.75;3.35;;;13.80;99.90;;;;;;5051124;28;20478;-62
2022/10/01 08:51:23;;;;;;;15.35;4.32;;;13.90;99.90;;;;;;5049884;28;20033;-61
2022/10/01 08:54:11;;;;;;;21.50;11.88;;;13.90;99.90;;;;;;5047778;28;20390;-61
2022/10/01 08:56:43;;;;;;;19.52;9.30;;;14.00;99.90;;;;;;5050019;28;20072;-61
2022/10/01 08:59:13;;;;;;;17.90;8.43;;;14.00;99.90;;;;;;5051569;28;20374;-61
2022/10/01 09:01:38;;;;;;;11.93;3.70;;;14.10;99.90;;;;;;5049762;28;20041;-61
2022/10/01 09:04:05;;;;;;;12.82;4.22;;;14.10;99.90;;;;;;5082798;28;20106;-61
2022/10/01 09:06:30;;;;;;;14.15;4.28;;;14.10;99.90;;;;;;5050192;28;20038;-61
2022/10/01 09:09:32;;;;;;;15.10;2.97;;;14.20;99.90;;;;;;5083739;28;20142;-61
2022/10/01 09:12:19;;;;;;;11.30;2.92;;;14.30;99.90;;;;;;5049580;28;20048;-61
2022/10/01 09:14:54;;;;;;;11.38;3.78;;;14.40;99.90;;;;;;5049672;28;20538;-61
2022/10/01 09:17:44;;;;;;;9.88;2.88;;;14.50;99.90;;;;;;5035693;28;20095;-61
2022/10/01 09:20:31;;;;;;;11.48;3.25;;;14.60;99.90;;;;;;5049285;28;20052;-61
2022/10/01 09:23:17;;;;;;;10.20;2.58;;;14.50;99.90;;;;;;5046528;28;20053;-62
2022/10/01 09:25:44;;;;;;;9.98;2.20;;;14.40;99.90;;;;;;5051300;28;20041;-63
2022/10/01 09:28:38;;;;;;;12.55;3.42;;;14.30;99.90;;;;;;5049808;28;20041;-62
2022/10/01 09:31:09;;;;;;;10.23;3.47;;;14.10;99.90;;;;;;5051384;28;20108;-62
2022/10/01 09:33:38;;;;;;;10.27;3.08;;;14.00;99.90;;;;;;5086603;28;20436;-61
2022/10/01 09:36:41;;;;;;;7.53;2.40;;;13.90;99.90;;;;;;5055243;28;20072;-61
2022/10/01 09:39:19;;;;;;;9.43;3.45;;;13.80;99.90;;;;;;5053240;28;20060;-61
2022/10/01 09:41:45;;;;;;;10.90;4.53;;;13.80;99.90;;;;;;5054839;28;20043;-61
2022/10/01 09:44:30;;;;;;;10.90;4.05;;;13.80;99.90;;;;;;5053024;28;20041;-62
2022/10/01 09:46:56;;;;;;;14.05;4.88;;;13.80;99.90;;;;;;5053288;28;20501;-62
2022/10/01 09:49:32;;;;;;;13.07;7.65;;;13.60;99.90;;;;;;5065460;28;20037;-62
2022/10/01 09:52:05;;;;;;;15.20;6.30;;;13.60;99.90;;;;;;5017526;28;20029;-61
2022/10/01 09:54:41;;;;;;;7.53;3.53;;;13.50;99.90;;;;;;5034455;28;20065;-60
2022/10/01 09:57:27;;;;;;;7.05;2.80;;;13.30;99.90;;;;;;5033875;28;20052;-60
2022/10/01 10:00:14;;;;;;;12.82;2.92;;;13.10;99.90;;;;;;5034427;28;20041;-60
2022/10/01 10:02:42;;;;;;;7.80;2.15;;;13.10;99.90;;;;;;5084384;28;20040;-60
2022/10/01 10:05:12;;;;;;;7.70;2.50;;;13.00;99.90;;;;;;5051785;28;20397;-60
2022/10/01 10:07:41;;;;;;;10.15;3.17;;;12.80;99.90;;;;;;5066537;28;20077;-60
2022/10/01 10:10:19;;;;;;;7.30;2.45;;;12.80;99.90;;;;;;5050147;28;20032;-60
2022/10/01 10:12:46;;;;;;;12.35;2.72;;;12.70;99.90;;;;;;5050422;28;20486;-59
2022/10/01 10:15:17;;;;;;;5.88;2.75;;;12.70;99.90;;;;;;5050438;28;20041;-60
2022/10/01 10:17:47;;;;;;;12.77;5.80;;;12.70;99.90;;;;;;5033337;28;20052;-60
2022/10/01 10:20:42;;;;;;;12.13;5.20;;;12.60;99.90;;;;;;5051746;28;20080;-60
2022/10/01 10:23:23;;;;;;;13.15;8.40;;;12.70;99.90;;;;;;5049474;28;20093;-60
2022/10/01 10:26:04;;;;;;;8.75;2.78;;;12.60;99.90;;;;;;5051387;28;20048;-60
2022/10/01 10:28:41;;;;;;;12.45;5.35;;;12.60;99.90;;;;;;5049141;28;20127;-60
2022/10/01 10:31:22;;;;;;;8.00;3.55;;;12.60;99.90;;;;;;5049630;28;20489;-60
2022/10/01 10:34:26;;;;;;;12.75;4.60;;;12.70;99.90;;;;;;5033366;28;20071;-61
2022/10/01 10:36:57;;;;;;;14.05;7.57;;;12.70;99.90;;;;;;5046703;28;20092;-60
2022/10/01 10:39:29;;;;;;;11.25;6.55;;;12.70;99.90;;;;;;5049980;28;20389;-61
2022/10/01 10:41:57;;;;;;;8.60;3.10;;;12.70;99.90;;;;;;5065057;28;20064;-61
2022/10/01 10:44:30;;;;;;;11.52;2.72;;;12.70;99.90;;;;;;5050540;28;20478;-61
2022/10/01 10:47:01;;;;;;;9.20;2.42;;;12.70;99.90;;;;;;5050225;28;20041;-61
2022/10/01 10:49:31;;;;;;;11.02;5.57;;;12.80;99.90;;;;;;5032986;28;20041;-61
2022/10/01 10:52:00;;;;;;;11.90;4.53;;;12.90;99.90;;;;;;5049700;28;20122;-62
2022/10/01 10:54:36;;;;;;;11.68;3.35;;;13.00;99.90;;;;;;5051346;28;20045;-62
2022/10/01 10:57:20;;;;;;;11.10;2.45;;;13.20;99.90;;;;;;5049475;28;20045;-63
2022/10/01 11:00:00;;;;;;;8.18;2.20;;;13.30;99.90;;;;;;5049774;28;20505;-63
2022/10/01 11:02:29;;;;;;;12.00;2.63;;;13.40;99.90;;;;;;5033500;28;20115;-62
2022/10/01 11:04:58;;;;;;;12.98;4.13;;;13.40;99.90;;;;;;5049293;28;20048;-62
2022/10/01 11:07:26;;;;;;;11.70;3.83;;;13.50;99.90;;;;;;5053660;28;20433;-62
2022/10/01 11:10:23;;;;;;;15.57;3.60;;;13.60;99.90;;;;;;5053093;28;20037;-62
2022/10/01 11:13:01;;;;;;;10.30;2.95;;;13.80;99.90;;;;;;5053599;28;20509;-62
2022/10/01 11:15:35;;;;;;;21.02;4.97;;;13.90;99.90;;;;;;5052085;28;20037;-62
2022/10/01 11:18:09;;;;;;;14.25;4.05;;;14.00;99.90;;;;;;5052814;28;20059;-62
2022/10/01 11:20:59;;;;;;;12.73;4.67;;;14.10;99.90;;;;;;5052165;28;20119;-63
2022/10/01 11:23:35;;;;;;;13.20;4.28;;;14.30;99.90;;;;;;5034841;28;20412;-62
2022/10/01 11:26:10;;;;;;;9.45;2.80;;;14.40;99.90;;;;;;5051820;28;20033;-63
2022/10/01 11:28:59;;;;;;;14.52;2.80;;;14.60;99.90;;;;;;5052033;28;20098;-61
2022/10/01 11:31:34;;;;;;;12.65;2.60;;;14.70;99.90;;;;;;5050525;28;20515;-62
2022/10/01 11:33:59;;;;;;;17.70;2.90;;;14.90;99.90;;;;;;5031884;28;20049;-61
2022/10/01 11:36:43;;;;;;;11.13;2.75;;;14.90;99.90;;;;;;5045831;28;20105;-61
2022/10/01 11:39:17;;;;;;;13.10;2.53;;;15.00;99.90;;;;;;5051930;28;20405;-61
2022/10/01 11:42:07;;;;;;;11.83;3.30;;;15.00;99.90;;;;;;5050518;28;20037;-62
2022/10/01 11:44:45;;;;;;;11.63;2.95;;;15.00;99.90;;;;;;5047053;28;20287;-62
2022/10/01 11:47:26;;;;;;;8.23;2.55;;;15.00;99.90;;;;;;5052744;28;20051;-61
2022/10/01 11:49:59;;;;;;;10.70;2.80;;;15.00;99.90;;;;;;5051480;28;20047;-62
2022/10/01 11:52:51;;;;;;;16.65;3.08;;;15.00;99.90;;;;;;5050757;28;20052;-62
2022/10/01 12:01:03;;;;;;;8.23;2.47;;;15.10;99.90;;;;;;5051305;28;20413;-62
2022/10/01 12:03:41;;;;;;;13.25;3.42;;;15.10;99.90;;;;;;5051125;28;20056;-62
2022/10/01 12:06:13;;;;;;;9.77;2.47;;;15.10;99.90;;;;;;5050190;28;20036;-61
2022/10/01 12:08:47;;;;;;;8.90;2.42;;;15.10;99.90;;;;;;5050781;28;20045;-62
2022/10/01 12:11:27;;;;;;;9.40;2.45;;;15.20;99.90;;;;;;5051617;28;20482;-61
2022/10/01 12:14:11;;;;;;;9.25;2.35;;;15.20;99.90;;;;;;5050580;28;20047;-61
2022/10/01 12:16:55;;;;;;;9.68;2.38;;;15.20;99.90;;;;;;5051444;28;20048;-61
2022/10/01 12:19:37;;;;;;;6.53;2.05;;;15.20;99.90;;;;;;5040079;28;20044;-61
2022/10/01 12:22:27;;;;;;;8.57;2.20;;;15.20;99.90;;;;;;5033820;28;20083;-61
2022/10/01 12:24:54;;;;;;;6.88;1.73;;;15.20;99.90;;;;;;5050681;28;20556;-61
2022/10/01 12:27:32;;;;;;;7.75;2.40;;;15.10;99.90;;;;;;5050546;28;20098;-61
2022/10/01 12:30:09;;;;;;;7.28;2.05;;;15.10;99.90;;;;;;5051918;28;20037;-61
2022/10/01 12:32:53;;;;;;;8.35;2.00;;;15.10;99.90;;;;;;5052271;28;20037;-61
2022/10/01 12:35:50;;;;;;;15.05;3.72;;;15.10;99.90;;;;;;5050236;28;20041;-62
2022/10/01 12:38:46;;;;;;;8.05;2.05;;;15.10;99.90;;;;;;5050886;28;20076;-61
2022/10/01 12:41:34;;;;;;;8.20;1.85;;;14.90;99.90;;;;;;5034004;28;20045;-61
2022/10/01 12:44:26;;;;;;;11.23;3.28;;;14.70;99.90;;;;;;5050553;28;20045;-61
2022/10/01 12:47:01;;;;;;;6.72;2.33;;;14.70;99.90;;;;;;5030687;28;20041;-61
2022/10/01 12:49:40;;;;;;;15.85;3.83;;;14.80;99.90;;;;;;5030368;28;20045;-61
2022/10/01 12:52:24;;;;;;;12.88;3.45;;;14.90;99.90;;;;;;5047923;28;20118;-61
2022/10/01 12:55:17;;;;;;;11.25;3.10;;;15.10;99.90;;;;;;5051774;28;20037;-61
2022/10/01 12:57:51;;;;;;;12.65;2.90;;;15.20;99.90;;;;;;5049344;28;20065;-61
2022/10/01 13:00:20;;;;;;;13.65;4.07;;;15.30;99.90;;;;;;5048249;28;20157;-61
2022/10/01 13:02:54;;;;;;;13.07;2.67;;;15.50;99.90;;;;;;5042734;28;20115;-61
2022/10/01 13:05:32;;;;;;;9.75;3.55;;;15.60;99.90;;;;;;5046490;28;20055;-61
2022/10/01 13:08:05;;;;;;;11.90;2.75;;;15.60;99.90;;;;;;5051936;28;20125;-61
2022/10/01 13:10:50;;;;;;;11.50;3.25;;;15.70;99.90;;;;;;5051046;28;20047;-61
2022/10/01 13:13:25;;;;;;;23.02;3.25;;;15.70;99.90;;;;;;5051108;28;20080;-61
2022/10/01 13:16:13;;;;;;;8.88;1.95;;;15.80;99.90;;;;;;5034806;28;20037;-61
2022/10/01 13:18:58;;;;;;;13.15;2.20;;;15.90;99.90;;;;;;5051292;28;20099;-62
2022/10/01 13:21:46;;;;;;;12.57;2.35;;;15.70;99.90;;;;;;5051237;28;20383;-61
2022/10/01 13:24:44;;;;;;;11.07;3.28;;;15.60;99.90;;;;;;5030610;28;20046;-62
2022/10/01 13:27:18;;;;;;;11.07;2.55;;;15.30;99.90;;;;;;5031849;28;20052;-62
2022/10/01 13:29:59;;;;;;;9.75;3.60;;;15.00;99.90;;;;;;5033032;28;20398;-63
2022/10/01 13:32:27;;;;;;;13.07;3.50;;;14.80;99.90;;;;;;5030868;28;20081;-62
2022/10/01 13:34:53;;;;;;;19.10;11.70;;;14.60;99.90;;;;;;5028836;28;20124;-62
2022/10/01 13:37:28;;;;;;;16.98;11.07;;;14.50;99.90;;;;;;5042186;28;20099;-62
2022/10/01 13:39:55;;;;;;;;;;;14.40;99.90;;;;;;5050587;28;20045;-62
2022/10/01 13:42:23;;;;;;;11.20;4.03;;;14.20;99.90;;;;;;5049707;28;19994;-64
2022/10/01 13:44:52;;;;;;;12.68;3.22;;;14.20;99.90;;;;;;5051358;28;20124;-65
2022/10/01 13:47:19;;;;;;;14.10;3.38;;;14.20;99.90;;;;;;5050996;28;20040;-65
2022/10/01 13:49:54;;;;;;;11.63;2.95;;;14.30;99.90;;;;;;5050953;28;20055;-65
2022/10/01 13:52:20;;;;;;;10.73;2.80;;;14.30;99.90;;;;;;5066463;28;20041;-65